sensor_id;sensor_type;location;lat;lon;timestamp;P1;durP1;ratioP1;P2;durP2;ratioP2
54923;SDS011;40825;52.270;20.984;2022-11-13T00:00:56;31.50;;;15.40;;
54923;SDS011;40825;52.270;20.984;2022-11-13T00:03:23;32.10;;;15.80;;
54923;SDS011;40825;52.270;20.984;2022-11-13T00:05:57;32.30;;;15.50;;
54923;SDS011;40825;52.270;20.984;2022-11-13T00:08:24;32.40;;;16.20;;
54923;SDS011;40825;52.270;20.984;2022-11-13T00:10:49;32.30;;;16.40;;
54923;SDS011;40825;52.270;20.984;2022-11-13T00:13:15;30.20;;;15.60;;
54923;SDS011;40825;52.270;20.984;2022-11-13T00:15:40;34.20;;;16.60;;
54923;SDS011;40825;52.270;20.984;2022-11-13T00:18:06;29.90;;;14.40;;
54923;SDS011;40825;52.270;20.984;2022-11-13T00:20:31;30.70;;;15.50;;
54923;SDS011;40825;52.270;20.984;2022-11-13T00:22:56;31.00;;;16.10;;
54923;SDS011;40825;52.270;20.984;2022-11-13T00:25:22;30.50;;;15.30;;
54923;SDS011;40825;52.270;20.984;2022-11-13T00:27:47;32.90;;;15.90;;
54923;SDS011;40825;52.270;20.984;2022-11-13T00:30:13;33.70;;;16.50;;
54923;SDS011;40825;52.270;20.984;2022-11-13T00:32:38;35.70;;;17.60;;
54923;SDS011;40825;52.270;20.984;2022-11-13T00:35:04;32.60;;;16.00;;
54923;SDS011;40825;52.270;20.984;2022-11-13T00:37:30;32.00;;;16.50;;
54923;SDS011;40825;52.270;20.984;2022-11-13T00:39:56;33.00;;;16.20;;
54923;SDS011;40825;52.270;20.984;2022-11-13T00:42:21;35.90;;;17.40;;
54923;SDS011;40825;52.270;20.984;2022-11-13T00:44:46;35.10;;;17.00;;
54923;SDS011;40825;52.270;20.984;2022-11-13T00:47:12;35.60;;;17.10;;
54923;SDS011;40825;52.270;20.984;2022-11-13T00:49:37;33.50;;;16.60;;
54923;SDS011;40825;52.270;20.984;2022-11-13T00:52:03;27.40;;;14.60;;
54923;SDS011;40825;52.270;20.984;2022-11-13T00:54:28;31.10;;;15.30;;
54923;SDS011;40825;52.270;20.984;2022-11-13T00:56:54;31.20;;;14.70;;
54923;SDS011;40825;52.270;20.984;2022-11-13T00:59:19;28.30;;;14.90;;
54923;SDS011;40825;52.270;20.984;2022-11-13T01:01:45;31.20;;;14.70;;
54923;SDS011;40825;52.270;20.984;2022-11-13T01:04:10;29.30;;;14.90;;
54923;SDS011;40825;52.270;20.984;2022-11-13T01:06:35;32.80;;;16.30;;
54923;SDS011;40825;52.270;20.984;2022-11-13T01:09:01;32.20;;;15.90;;
54923;SDS011;40825;52.270;20.984;2022-11-13T01:11:27;34.20;;;16.70;;
54923;SDS011;40825;52.270;20.984;2022-11-13T01:13:54;36.10;;;17.60;;
54923;SDS011;40825;52.270;20.984;2022-11-13T01:16:21;34.40;;;16.00;;
54923;SDS011;40825;52.270;20.984;2022-11-13T01:18:54;32.40;;;15.20;;
54923;SDS011;40825;52.270;20.984;2022-11-13T01:21:22;31.90;;;15.60;;
54923;SDS011;40825;52.270;20.984;2022-11-13T01:23:50;34.00;;;15.40;;
54923;SDS011;40825;52.270;20.984;2022-11-13T01:28:48;29.20;;;15.10;;
54923;SDS011;40825;52.270;20.984;2022-11-13T01:31:15;30.20;;;14.90;;
54923;SDS011;40825;52.270;20.984;2022-11-13T01:33:45;30.20;;;14.20;;
54923;SDS011;40825;52.270;20.984;2022-11-13T01:36:21;26.90;;;13.80;;
54923;SDS011;40825;52.270;20.984;2022-11-13T01:38:48;31.20;;;15.10;;
54923;SDS011;40825;52.270;20.984;2022-11-13T01:41:15;29.10;;;14.60;;
54923;SDS011;40825;52.270;20.984;2022-11-13T01:43:43;30.50;;;15.00;;
54923;SDS011;40825;52.270;20.984;2022-11-13T01:48:52;32.60;;;16.20;;
54923;SDS011;40825;52.270;20.984;2022-11-13T01:51:24;29.00;;;14.50;;
54923;SDS011;40825;52.270;20.984;2022-11-13T01:53:58;29.70;;;14.90;;
54923;SDS011;40825;52.270;20.984;2022-11-13T01:56:26;34.50;;;17.00;;
54923;SDS011;40825;52.270;20.984;2022-11-13T01:58:54;35.90;;;17.20;;
54923;SDS011;40825;52.270;20.984;2022-11-13T02:02:34;30.10;;;14.80;;
54923;SDS011;40825;52.270;20.984;2022-11-13T02:04:59;29.40;;;14.70;;
54923;SDS011;40825;52.270;20.984;2022-11-13T02:07:26;30.10;;;15.20;;
54923;SDS011;40825;52.270;20.984;2022-11-13T02:09:52;29.80;;;14.10;;
54923;SDS011;40825;52.270;20.984;2022-11-13T02:12:23;29.40;;;14.10;;
54923;SDS011;40825;52.270;20.984;2022-11-13T02:14:55;32.80;;;17.10;;
54923;SDS011;40825;52.270;20.984;2022-11-13T02:17:27;33.20;;;17.70;;
54923;SDS011;40825;52.270;20.984;2022-11-13T02:19:58;33.00;;;15.70;;
54923;SDS011;40825;52.270;20.984;2022-11-13T02:25:10;30.50;;;14.30;;
54923;SDS011;40825;52.270;20.984;2022-11-13T02:27:48;30.00;;;14.90;;
54923;SDS011;40825;52.270;20.984;2022-11-13T02:30:16;31.20;;;15.60;;
54923;SDS011;40825;52.270;20.984;2022-11-13T02:32:45;34.40;;;16.90;;
54923;SDS011;40825;52.270;20.984;2022-11-13T02:35:16;30.00;;;14.30;;
54923;SDS011;40825;52.270;20.984;2022-11-13T02:37:51;30.40;;;14.50;;
54923;SDS011;40825;52.270;20.984;2022-11-13T02:40:18;30.70;;;15.10;;
54923;SDS011;40825;52.270;20.984;2022-11-13T02:42:44;30.30;;;14.30;;
54923;SDS011;40825;52.270;20.984;2022-11-13T02:45:09;29.50;;;14.40;;
54923;SDS011;40825;52.270;20.984;2022-11-13T02:47:35;31.90;;;14.80;;
54923;SDS011;40825;52.270;20.984;2022-11-13T02:50:01;25.00;;;12.00;;
54923;SDS011;40825;52.270;20.984;2022-11-13T02:52:26;28.90;;;13.80;;
54923;SDS011;40825;52.270;20.984;2022-11-13T02:54:52;32.70;;;14.60;;
54923;SDS011;40825;52.270;20.984;2022-11-13T02:57:17;31.70;;;15.20;;
54923;SDS011;40825;52.270;20.984;2022-11-13T02:59:42;31.50;;;14.60;;
54923;SDS011;40825;52.270;20.984;2022-11-13T03:02:09;30.00;;;14.70;;
54923;SDS011;40825;52.270;20.984;2022-11-13T03:04:35;32.50;;;14.70;;
54923;SDS011;40825;52.270;20.984;2022-11-13T03:07:01;30.50;;;14.20;;
54923;SDS011;40825;52.270;20.984;2022-11-13T03:09:27;30.60;;;13.90;;
54923;SDS011;40825;52.270;20.984;2022-11-13T03:11:52;33.20;;;14.90;;
54923;SDS011;40825;52.270;20.984;2022-11-13T03:14:17;29.10;;;13.60;;
54923;SDS011;40825;52.270;20.984;2022-11-13T03:16:43;30.50;;;14.40;;
54923;SDS011;40825;52.270;20.984;2022-11-13T03:19:08;31.10;;;14.70;;
54923;SDS011;40825;52.270;20.984;2022-11-13T03:21:34;28.70;;;14.20;;
54923;SDS011;40825;52.270;20.984;2022-11-13T03:23:59;36.80;;;14.70;;
54923;SDS011;40825;52.270;20.984;2022-11-13T03:26:24;30.70;;;15.50;;
54923;SDS011;40825;52.270;20.984;2022-11-13T03:28:52;28.30;;;13.70;;
54923;SDS011;40825;52.270;20.984;2022-11-13T03:31:18;31.20;;;14.20;;
54923;SDS011;40825;52.270;20.984;2022-11-13T03:33:44;28.70;;;14.80;;
54923;SDS011;40825;52.270;20.984;2022-11-13T03:36:10;29.20;;;13.50;;
54923;SDS011;40825;52.270;20.984;2022-11-13T03:38:37;30.00;;;14.10;;
54923;SDS011;40825;52.270;20.984;2022-11-13T03:41:02;30.80;;;15.40;;
54923;SDS011;40825;52.270;20.984;2022-11-13T03:43:28;30.90;;;14.60;;
54923;SDS011;40825;52.270;20.984;2022-11-13T03:45:54;34.00;;;16.70;;
54923;SDS011;40825;52.270;20.984;2022-11-13T03:48:19;34.30;;;15.10;;
54923;SDS011;40825;52.270;20.984;2022-11-13T03:50:47;27.80;;;14.00;;
54923;SDS011;40825;52.270;20.984;2022-11-13T03:53:16;29.90;;;13.90;;
54923;SDS011;40825;52.270;20.984;2022-11-13T03:55:42;30.90;;;14.60;;
54923;SDS011;40825;52.270;20.984;2022-11-13T03:58:08;29.60;;;14.90;;
54923;SDS011;40825;52.270;20.984;2022-11-13T04:00:34;29.70;;;14.10;;
54923;SDS011;40825;52.270;20.984;2022-11-13T04:03:00;28.40;;;14.00;;
54923;SDS011;40825;52.270;20.984;2022-11-13T04:05:25;29.00;;;12.90;;
54923;SDS011;40825;52.270;20.984;2022-11-13T04:07:51;30.60;;;13.00;;
54923;SDS011;40825;52.270;20.984;2022-11-13T04:10:16;30.80;;;13.80;;
54923;SDS011;40825;52.270;20.984;2022-11-13T04:12:42;32.30;;;14.00;;
54923;SDS011;40825;52.270;20.984;2022-11-13T04:15:08;28.20;;;12.20;;
54923;SDS011;40825;52.270;20.984;2022-11-13T04:17:33;27.90;;;13.60;;
54923;SDS011;40825;52.270;20.984;2022-11-13T04:19:59;34.60;;;14.90;;
54923;SDS011;40825;52.270;20.984;2022-11-13T04:22:24;32.30;;;14.90;;
54923;SDS011;40825;52.270;20.984;2022-11-13T04:24:50;28.70;;;13.30;;
54923;SDS011;40825;52.270;20.984;2022-11-13T04:27:15;32.10;;;14.60;;
54923;SDS011;40825;52.270;20.984;2022-11-13T04:29:41;32.50;;;15.20;;
54923;SDS011;40825;52.270;20.984;2022-11-13T04:32:06;31.30;;;14.50;;
54923;SDS011;40825;52.270;20.984;2022-11-13T04:34:32;39.00;;;16.00;;
54923;SDS011;40825;52.270;20.984;2022-11-13T04:36:57;34.60;;;13.90;;
54923;SDS011;40825;52.270;20.984;2022-11-13T04:39:23;34.80;;;16.10;;
54923;SDS011;40825;52.270;20.984;2022-11-13T04:41:48;29.60;;;13.30;;
54923;SDS011;40825;52.270;20.984;2022-11-13T04:44:32;34.00;;;14.70;;
54923;SDS011;40825;52.270;20.984;2022-11-13T04:46:57;35.00;;;15.90;;
54923;SDS011;40825;52.270;20.984;2022-11-13T04:49:23;34.40;;;14.50;;
54923;SDS011;40825;52.270;20.984;2022-11-13T04:51:48;29.90;;;14.40;;
54923;SDS011;40825;52.270;20.984;2022-11-13T04:54:13;33.20;;;14.90;;
54923;SDS011;40825;52.270;20.984;2022-11-13T04:56:39;36.30;;;15.50;;
54923;SDS011;40825;52.270;20.984;2022-11-13T04:59:05;32.70;;;14.50;;
54923;SDS011;40825;52.270;20.984;2022-11-13T05:01:30;31.30;;;13.80;;
54923;SDS011;40825;52.270;20.984;2022-11-13T05:03:56;29.00;;;13.60;;
54923;SDS011;40825;52.270;20.984;2022-11-13T05:06:21;34.10;;;14.20;;
54923;SDS011;40825;52.270;20.984;2022-11-13T05:08:47;32.10;;;13.90;;
54923;SDS011;40825;52.270;20.984;2022-11-13T05:11:12;32.30;;;13.90;;
54923;SDS011;40825;52.270;20.984;2022-11-13T05:13:38;32.60;;;14.30;;
54923;SDS011;40825;52.270;20.984;2022-11-13T05:16:04;31.90;;;15.10;;
54923;SDS011;40825;52.270;20.984;2022-11-13T05:18:32;28.90;;;13.20;;
54923;SDS011;40825;52.270;20.984;2022-11-13T05:20:59;31.00;;;14.70;;
54923;SDS011;40825;52.270;20.984;2022-11-13T05:23:25;30.50;;;13.70;;
54923;SDS011;40825;52.270;20.984;2022-11-13T05:25:51;31.80;;;14.70;;
54923;SDS011;40825;52.270;20.984;2022-11-13T05:28:16;25.60;;;11.70;;
54923;SDS011;40825;52.270;20.984;2022-11-13T05:30:43;32.10;;;13.40;;
54923;SDS011;40825;52.270;20.984;2022-11-13T05:33:08;32.20;;;14.50;;
54923;SDS011;40825;52.270;20.984;2022-11-13T05:35:34;30.50;;;13.70;;
54923;SDS011;40825;52.270;20.984;2022-11-13T05:37:59;32.80;;;16.00;;
54923;SDS011;40825;52.270;20.984;2022-11-13T05:40:26;30.30;;;13.50;;
54923;SDS011;40825;52.270;20.984;2022-11-13T05:42:52;29.40;;;13.40;;
54923;SDS011;40825;52.270;20.984;2022-11-13T05:45:18;31.50;;;14.10;;
54923;SDS011;40825;52.270;20.984;2022-11-13T05:47:44;29.10;;;13.70;;
54923;SDS011;40825;52.270;20.984;2022-11-13T05:50:09;31.70;;;14.80;;
54923;SDS011;40825;52.270;20.984;2022-11-13T05:52:35;31.20;;;14.20;;
54923;SDS011;40825;52.270;20.984;2022-11-13T05:55:00;30.70;;;14.30;;
54923;SDS011;40825;52.270;20.984;2022-11-13T05:57:26;32.70;;;14.90;;
54923;SDS011;40825;52.270;20.984;2022-11-13T05:59:51;29.60;;;13.50;;
54923;SDS011;40825;52.270;20.984;2022-11-13T06:02:16;31.20;;;15.00;;
54923;SDS011;40825;52.270;20.984;2022-11-13T06:04:42;31.10;;;14.30;;
54923;SDS011;40825;52.270;20.984;2022-11-13T06:07:07;28.10;;;15.00;;
54923;SDS011;40825;52.270;20.984;2022-11-13T06:09:33;27.00;;;12.60;;
54923;SDS011;40825;52.270;20.984;2022-11-13T06:11:58;31.80;;;15.10;;
54923;SDS011;40825;52.270;20.984;2022-11-13T06:14:23;32.70;;;15.30;;
54923;SDS011;40825;52.270;20.984;2022-11-13T06:16:50;35.90;;;15.30;;
54923;SDS011;40825;52.270;20.984;2022-11-13T06:19:15;31.30;;;14.50;;
54923;SDS011;40825;52.270;20.984;2022-11-13T06:21:41;35.70;;;16.30;;
54923;SDS011;40825;52.270;20.984;2022-11-13T06:24:07;33.30;;;16.80;;
54923;SDS011;40825;52.270;20.984;2022-11-13T06:26:35;35.20;;;16.20;;
54923;SDS011;40825;52.270;20.984;2022-11-13T06:29:02;34.30;;;15.50;;
54923;SDS011;40825;52.270;20.984;2022-11-13T06:31:30;35.10;;;15.90;;
54923;SDS011;40825;52.270;20.984;2022-11-13T06:33:57;35.30;;;15.50;;
54923;SDS011;40825;52.270;20.984;2022-11-13T06:36:24;32.40;;;14.40;;
54923;SDS011;40825;52.270;20.984;2022-11-13T06:38:52;32.10;;;14.50;;
54923;SDS011;40825;52.270;20.984;2022-11-13T06:41:18;29.90;;;13.50;;
54923;SDS011;40825;52.270;20.984;2022-11-13T06:43:45;32.80;;;14.50;;
54923;SDS011;40825;52.270;20.984;2022-11-13T06:46:19;35.20;;;14.70;;
54923;SDS011;40825;52.270;20.984;2022-11-13T06:48:47;31.90;;;14.30;;
54923;SDS011;40825;52.270;20.984;2022-11-13T06:51:15;32.80;;;14.90;;
54923;SDS011;40825;52.270;20.984;2022-11-13T06:53:43;28.40;;;13.40;;
54923;SDS011;40825;52.270;20.984;2022-11-13T06:56:09;32.30;;;13.60;;
54923;SDS011;40825;52.270;20.984;2022-11-13T06:58:35;31.60;;;14.10;;
54923;SDS011;40825;52.270;20.984;2022-11-13T07:01:08;30.90;;;14.10;;
54923;SDS011;40825;52.270;20.984;2022-11-13T07:03:36;35.90;;;16.50;;
54923;SDS011;40825;52.270;20.984;2022-11-13T07:06:05;32.50;;;15.40;;
54923;SDS011;40825;52.270;20.984;2022-11-13T07:08:33;30.50;;;13.60;;
54923;SDS011;40825;52.270;20.984;2022-11-13T07:10:59;28.40;;;13.20;;
54923;SDS011;40825;52.270;20.984;2022-11-13T07:13:25;30.20;;;13.40;;
54923;SDS011;40825;52.270;20.984;2022-11-13T07:15:52;26.30;;;11.60;;
54923;SDS011;40825;52.270;20.984;2022-11-13T07:18:18;25.20;;;11.80;;
54923;SDS011;40825;52.270;20.984;2022-11-13T07:20:44;23.90;;;11.30;;
54923;SDS011;40825;52.270;20.984;2022-11-13T07:23:10;26.10;;;11.80;;
54923;SDS011;40825;52.270;20.984;2022-11-13T07:25:35;21.80;;;10.00;;
54923;SDS011;40825;52.270;20.984;2022-11-13T07:28:01;23.80;;;10.10;;
54923;SDS011;40825;52.270;20.984;2022-11-13T07:30:26;24.70;;;10.40;;
54923;SDS011;40825;52.270;20.984;2022-11-13T07:32:52;24.50;;;11.00;;
54923;SDS011;40825;52.270;20.984;2022-11-13T07:35:17;22.50;;;10.30;;
54923;SDS011;40825;52.270;20.984;2022-11-13T07:37:43;22.90;;;9.70;;
54923;SDS011;40825;52.270;20.984;2022-11-13T07:40:09;23.80;;;10.60;;
54923;SDS011;40825;52.270;20.984;2022-11-13T07:42:35;23.10;;;10.60;;
54923;SDS011;40825;52.270;20.984;2022-11-13T07:45:01;23.10;;;10.00;;
54923;SDS011;40825;52.270;20.984;2022-11-13T07:47:27;24.70;;;10.50;;
54923;SDS011;40825;52.270;20.984;2022-11-13T07:49:53;21.90;;;10.40;;
54923;SDS011;40825;52.270;20.984;2022-11-13T07:52:18;24.40;;;11.50;;
54923;SDS011;40825;52.270;20.984;2022-11-13T07:54:44;21.40;;;9.10;;
54923;SDS011;40825;52.270;20.984;2022-11-13T07:57:09;21.70;;;10.10;;
54923;SDS011;40825;52.270;20.984;2022-11-13T07:59:35;23.40;;;9.90;;
54923;SDS011;40825;52.270;20.984;2022-11-13T08:02:00;24.60;;;10.20;;
54923;SDS011;40825;52.270;20.984;2022-11-13T08:04:26;20.10;;;9.30;;
54923;SDS011;40825;52.270;20.984;2022-11-13T08:06:52;17.90;;;8.90;;
54923;SDS011;40825;52.270;20.984;2022-11-13T08:09:17;20.00;;;9.10;;
54923;SDS011;40825;52.270;20.984;2022-11-13T08:11:43;20.10;;;9.40;;
54923;SDS011;40825;52.270;20.984;2022-11-13T08:14:09;23.90;;;9.90;;
54923;SDS011;40825;52.270;20.984;2022-11-13T08:16:35;18.90;;;8.70;;
54923;SDS011;40825;52.270;20.984;2022-11-13T08:19:01;20.10;;;9.30;;
54923;SDS011;40825;52.270;20.984;2022-11-13T08:21:26;22.40;;;9.80;;
54923;SDS011;40825;52.270;20.984;2022-11-13T08:23:51;21.00;;;9.00;;
54923;SDS011;40825;52.270;20.984;2022-11-13T08:26:17;19.60;;;9.70;;
54923;SDS011;40825;52.270;20.984;2022-11-13T08:28:43;19.40;;;9.60;;
54923;SDS011;40825;52.270;20.984;2022-11-13T08:31:10;17.30;;;7.80;;
54923;SDS011;40825;52.270;20.984;2022-11-13T08:33:37;20.50;;;9.40;;
54923;SDS011;40825;52.270;20.984;2022-11-13T08:36:02;19.90;;;9.70;;
54923;SDS011;40825;52.270;20.984;2022-11-13T08:38:28;18.40;;;8.70;;
54923;SDS011;40825;52.270;20.984;2022-11-13T08:40:57;20.20;;;10.10;;
54923;SDS011;40825;52.270;20.984;2022-11-13T08:43:23;19.10;;;8.80;;
54923;SDS011;40825;52.270;20.984;2022-11-13T08:45:49;20.10;;;9.20;;
54923;SDS011;40825;52.270;20.984;2022-11-13T08:48:14;21.60;;;10.30;;
54923;SDS011;40825;52.270;20.984;2022-11-13T08:50:40;18.50;;;8.60;;
54923;SDS011;40825;52.270;20.984;2022-11-13T08:53:05;20.20;;;9.40;;
54923;SDS011;40825;52.270;20.984;2022-11-13T08:55:31;19.60;;;9.90;;
54923;SDS011;40825;52.270;20.984;2022-11-13T08:57:58;21.70;;;9.90;;
54923;SDS011;40825;52.270;20.984;2022-11-13T09:00:26;20.80;;;10.10;;
54923;SDS011;40825;52.270;20.984;2022-11-13T09:02:53;17.10;;;8.00;;
54923;SDS011;40825;52.270;20.984;2022-11-13T09:05:19;20.30;;;9.10;;
54923;SDS011;40825;52.270;20.984;2022-11-13T09:07:45;20.80;;;9.40;;
54923;SDS011;40825;52.270;20.984;2022-11-13T09:10:10;19.70;;;9.40;;
54923;SDS011;40825;52.270;20.984;2022-11-13T09:12:36;21.90;;;9.70;;
54923;SDS011;40825;52.270;20.984;2022-11-13T09:15:01;21.70;;;9.70;;
54923;SDS011;40825;52.270;20.984;2022-11-13T09:17:26;20.90;;;8.90;;
54923;SDS011;40825;52.270;20.984;2022-11-13T09:19:52;22.40;;;10.50;;
54923;SDS011;40825;52.270;20.984;2022-11-13T09:22:17;21.40;;;9.80;;
54923;SDS011;40825;52.270;20.984;2022-11-13T09:24:43;21.00;;;9.30;;
54923;SDS011;40825;52.270;20.984;2022-11-13T09:27:08;21.00;;;10.70;;
54923;SDS011;40825;52.270;20.984;2022-11-13T09:29:34;21.80;;;9.70;;
54923;SDS011;40825;52.270;20.984;2022-11-13T09:32:00;19.80;;;8.70;;
54923;SDS011;40825;52.270;20.984;2022-11-13T09:34:25;17.70;;;8.10;;
54923;SDS011;40825;52.270;20.984;2022-11-13T09:36:52;17.80;;;8.50;;
54923;SDS011;40825;52.270;20.984;2022-11-13T09:39:18;18.00;;;8.30;;
54923;SDS011;40825;52.270;20.984;2022-11-13T09:41:47;17.10;;;8.20;;
54923;SDS011;40825;52.270;20.984;2022-11-13T09:44:19;17.20;;;7.50;;
54923;SDS011;40825;52.270;20.984;2022-11-13T09:49:43;17.60;;;7.80;;
54923;SDS011;40825;52.270;20.984;2022-11-13T09:52:16;19.00;;;7.40;;
54923;SDS011;40825;52.270;20.984;2022-11-13T09:54:45;19.00;;;8.30;;
54923;SDS011;40825;52.270;20.984;2022-11-13T09:59:58;17.20;;;7.70;;
54923;SDS011;40825;52.270;20.984;2022-11-13T10:02:38;17.50;;;8.40;;
54923;SDS011;40825;52.270;20.984;2022-11-13T10:05:50;15.80;;;7.90;;
54923;SDS011;40825;52.270;20.984;2022-11-13T10:08:30;15.40;;;7.50;;
54923;SDS011;40825;52.270;20.984;2022-11-13T10:13:46;16.30;;;7.20;;
54923;SDS011;40825;52.270;20.984;2022-11-13T10:24:57;14.20;;;6.20;;
54923;SDS011;40825;52.270;20.984;2022-11-13T10:29:55;12.10;;;5.10;;
54923;SDS011;40825;52.270;20.984;2022-11-13T10:32:30;13.10;;;6.20;;
54923;SDS011;40825;52.270;20.984;2022-11-13T10:34:58;13.30;;;7.20;;
54923;SDS011;40825;52.270;20.984;2022-11-13T10:37:57;13.70;;;5.80;;
54923;SDS011;40825;52.270;20.984;2022-11-13T10:40:23;12.20;;;5.30;;
54923;SDS011;40825;52.270;20.984;2022-11-13T10:42:50;11.60;;;4.80;;
54923;SDS011;40825;52.270;20.984;2022-11-13T10:45:17;11.50;;;5.50;;
54923;SDS011;40825;52.270;20.984;2022-11-13T10:47:45;10.30;;;5.10;;
54923;SDS011;40825;52.270;20.984;2022-11-13T10:50:27;10.40;;;4.60;;
54923;SDS011;40825;52.270;20.984;2022-11-13T10:52:54;10.40;;;5.20;;
54923;SDS011;40825;52.270;20.984;2022-11-13T10:55:25;11.10;;;4.20;;
54923;SDS011;40825;52.270;20.984;2022-11-13T10:58:11;11.60;;;5.20;;
54923;SDS011;40825;52.270;20.984;2022-11-13T11:00:39;10.60;;;5.10;;
54923;SDS011;40825;52.270;20.984;2022-11-13T11:03:46;11.30;;;4.80;;
54923;SDS011;40825;52.270;20.984;2022-11-13T11:05:58;11.00;;;5.10;;
54923;SDS011;40825;52.270;20.984;2022-11-13T11:08:29;12.10;;;5.60;;
54923;SDS011;40825;52.270;20.984;2022-11-13T11:11:01;11.00;;;4.80;;
54923;SDS011;40825;52.270;20.984;2022-11-13T11:13:50;11.50;;;5.20;;
54923;SDS011;40825;52.270;20.984;2022-11-13T11:16:20;10.60;;;4.60;;
54923;SDS011;40825;52.270;20.984;2022-11-13T11:18:53;11.00;;;4.90;;
54923;SDS011;40825;52.270;20.984;2022-11-13T11:21:27;11.90;;;5.00;;
54923;SDS011;40825;52.270;20.984;2022-11-13T11:26:50;13.00;;;5.30;;
54923;SDS011;40825;52.270;20.984;2022-11-13T11:29:27;13.60;;;5.30;;
54923;SDS011;40825;52.270;20.984;2022-11-13T11:35:22;13.80;;;6.20;;
54923;SDS011;40825;52.270;20.984;2022-11-13T11:38:12;14.90;;;6.10;;
54923;SDS011;40825;52.270;20.984;2022-11-13T11:40:45;12.80;;;4.70;;
54923;SDS011;40825;52.270;20.984;2022-11-13T11:43:19;11.00;;;4.90;;
54923;SDS011;40825;52.270;20.984;2022-11-13T11:45:48;14.40;;;5.10;;
54923;SDS011;40825;52.270;20.984;2022-11-13T11:48:19;13.10;;;6.00;;
54923;SDS011;40825;52.270;20.984;2022-11-13T11:50:52;12.50;;;5.20;;
54923;SDS011;40825;52.270;20.984;2022-11-13T11:53:53;13.60;;;5.60;;
54923;SDS011;40825;52.270;20.984;2022-11-13T11:56:42;12.80;;;5.20;;
54923;SDS011;40825;52.270;20.984;2022-11-13T11:59:11;12.50;;;5.40;;
54923;SDS011;40825;52.270;20.984;2022-11-13T12:10:05;13.30;;;6.20;;
54923;SDS011;40825;52.270;20.984;2022-11-13T12:15:25;13.60;;;5.90;;
54923;SDS011;40825;52.270;20.984;2022-11-13T12:18:20;14.20;;;5.70;;
54923;SDS011;40825;52.270;20.984;2022-11-13T12:21:16;13.00;;;5.60;;
54923;SDS011;40825;52.270;20.984;2022-11-13T12:24:35;14.20;;;7.70;;
54923;SDS011;40825;52.270;20.984;2022-11-13T12:35:18;12.80;;;5.70;;
54923;SDS011;40825;52.270;20.984;2022-11-13T12:46:08;13.10;;;5.70;;
54923;SDS011;40825;52.270;20.984;2022-11-13T12:48:36;11.50;;;5.50;;
54923;SDS011;40825;52.270;20.984;2022-11-13T12:51:05;12.20;;;5.60;;
54923;SDS011;40825;52.270;20.984;2022-11-13T12:53:46;12.80;;;5.40;;
54923;SDS011;40825;52.270;20.984;2022-11-13T13:01:41;11.70;;;5.40;;
54923;SDS011;40825;52.270;20.984;2022-11-13T13:18:08;15.40;;;7.30;;
54923;SDS011;40825;52.270;20.984;2022-11-13T13:23:35;13.70;;;6.30;;
54923;SDS011;40825;52.270;20.984;2022-11-13T13:28:38;15.60;;;7.10;;
54923;SDS011;40825;52.270;20.984;2022-11-13T13:31:08;14.60;;;6.90;;
54923;SDS011;40825;52.270;20.984;2022-11-13T13:34:16;12.80;;;6.20;;
54923;SDS011;40825;52.270;20.984;2022-11-13T13:36:52;14.70;;;6.00;;
54923;SDS011;40825;52.270;20.984;2022-11-13T13:44:50;13.20;;;6.20;;
54923;SDS011;40825;52.270;20.984;2022-11-13T13:47:46;12.60;;;6.10;;
54923;SDS011;40825;52.270;20.984;2022-11-13T13:50:18;14.00;;;6.30;;
54923;SDS011;40825;52.270;20.984;2022-11-13T13:52:46;14.20;;;5.80;;
54923;SDS011;40825;52.270;20.984;2022-11-13T13:55:31;13.50;;;6.20;;
54923;SDS011;40825;52.270;20.984;2022-11-13T13:58:00;13.90;;;6.70;;
54923;SDS011;40825;52.270;20.984;2022-11-13T14:00:28;15.20;;;7.30;;
54923;SDS011;40825;52.270;20.984;2022-11-13T14:02:55;14.90;;;6.10;;
54923;SDS011;40825;52.270;20.984;2022-11-13T14:05:25;18.20;;;8.40;;
54923;SDS011;40825;52.270;20.984;2022-11-13T14:07:55;13.10;;;5.90;;
54923;SDS011;40825;52.270;20.984;2022-11-13T14:10:22;15.90;;;6.20;;
54923;SDS011;40825;52.270;20.984;2022-11-13T14:12:50;15.00;;;7.40;;
54923;SDS011;40825;52.270;20.984;2022-11-13T14:18:02;17.40;;;7.80;;
54923;SDS011;40825;52.270;20.984;2022-11-13T14:20:36;15.80;;;7.80;;
54923;SDS011;40825;52.270;20.984;2022-11-13T14:23:07;17.10;;;8.30;;
54923;SDS011;40825;52.270;20.984;2022-11-13T14:25:38;16.20;;;7.50;;
54923;SDS011;40825;52.270;20.984;2022-11-13T14:28:04;14.70;;;7.60;;
54923;SDS011;40825;52.270;20.984;2022-11-13T14:30:41;14.40;;;6.80;;
54923;SDS011;40825;52.270;20.984;2022-11-13T14:33:14;19.20;;;8.40;;
54923;SDS011;40825;52.270;20.984;2022-11-13T14:38:19;14.20;;;6.20;;
54923;SDS011;40825;52.270;20.984;2022-11-13T14:40:47;14.70;;;6.10;;
54923;SDS011;40825;52.270;20.984;2022-11-13T14:43:15;14.60;;;6.90;;
54923;SDS011;40825;52.270;20.984;2022-11-13T14:45:53;14.90;;;7.00;;
54923;SDS011;40825;52.270;20.984;2022-11-13T14:48:27;16.80;;;6.80;;
54923;SDS011;40825;52.270;20.984;2022-11-13T14:50:58;14.30;;;6.20;;
54923;SDS011;40825;52.270;20.984;2022-11-13T14:56:00;15.70;;;6.60;;
54923;SDS011;40825;52.270;20.984;2022-11-13T14:58:30;17.40;;;7.70;;
54923;SDS011;40825;52.270;20.984;2022-11-13T15:01:13;14.60;;;6.60;;
54923;SDS011;40825;52.270;20.984;2022-11-13T15:03:44;15.80;;;8.00;;
54923;SDS011;40825;52.270;20.984;2022-11-13T15:06:14;16.80;;;8.00;;
54923;SDS011;40825;52.270;20.984;2022-11-13T15:08:43;18.80;;;7.90;;
54923;SDS011;40825;52.270;20.984;2022-11-13T15:11:13;16.60;;;8.30;;
54923;SDS011;40825;52.270;20.984;2022-11-13T15:13:40;21.70;;;10.20;;
54923;SDS011;40825;52.270;20.984;2022-11-13T15:16:08;16.30;;;8.30;;
54923;SDS011;40825;52.270;20.984;2022-11-13T15:18:46;22.00;;;9.40;;
54923;SDS011;40825;52.270;20.984;2022-11-13T15:21:14;20.40;;;9.30;;
54923;SDS011;40825;52.270;20.984;2022-11-13T15:23:40;21.90;;;11.00;;
54923;SDS011;40825;52.270;20.984;2022-11-13T15:26:07;19.10;;;8.80;;
54923;SDS011;40825;52.270;20.984;2022-11-13T15:28:34;20.90;;;10.20;;
54923;SDS011;40825;52.270;20.984;2022-11-13T15:31:00;21.00;;;9.90;;
54923;SDS011;40825;52.270;20.984;2022-11-13T15:33:25;21.60;;;9.60;;
54923;SDS011;40825;52.270;20.984;2022-11-13T15:35:51;21.30;;;10.40;;
54923;SDS011;40825;52.270;20.984;2022-11-13T15:38:16;21.30;;;11.10;;
54923;SDS011;40825;52.270;20.984;2022-11-13T15:40:42;23.30;;;10.40;;
54923;SDS011;40825;52.270;20.984;2022-11-13T15:43:09;20.40;;;10.70;;
54923;SDS011;40825;52.270;20.984;2022-11-13T15:45:44;22.50;;;10.80;;
54923;SDS011;40825;52.270;20.984;2022-11-13T15:48:09;21.80;;;10.70;;
54923;SDS011;40825;52.270;20.984;2022-11-13T15:50:35;26.00;;;11.70;;
54923;SDS011;40825;52.270;20.984;2022-11-13T15:53:00;19.60;;;10.00;;
54923;SDS011;40825;52.270;20.984;2022-11-13T15:55:28;20.90;;;10.90;;
54923;SDS011;40825;52.270;20.984;2022-11-13T15:57:56;19.10;;;10.30;;
54923;SDS011;40825;52.270;20.984;2022-11-13T16:00:23;19.20;;;9.70;;
54923;SDS011;40825;52.270;20.984;2022-11-13T16:02:51;22.60;;;11.50;;